Time;durP1;ratioP1;P1;durP2;ratioP2;P2;SDS_P1;SDS_P2;PMS_P1;PMS_P2;Temp;Humidity;BMP_temperature;BMP_pressure;BME280_temperature;BME280_humidity;BME280_pressure;Samples;Min_cycle;Max_cycle;Signal;HPM_P1;HPM_P2
2023/03/07 00:00:01;;;;;;;;;;;3.40;51.20;;;1.45;55.35;99740.59;12253074;19;20291;-86
2023/03/07 00:04:03;;;;;;;;;;;3.60;51.40;;;1.73;55.29;99773.97;12252610;19;19924;-86
2023/03/07 00:08:05;;;;;;;;;;;3.40;51.40;;;1.71;55.49;99758.56;12255897;19;19919;-86
2023/03/07 00:12:08;;;;;;;;;;;3.40;51.50;;;1.60;55.25;99734.09;12254281;19;19922;-86
2023/03/07 00:16:16;;;;;;;;;;;3.40;51.60;;;1.69;55.35;99741.50;12251749;19;19922;-87
2023/03/07 00:20:17;;;;;;;;;;;3.40;51.70;;;1.73;55.44;99741.34;12252619;19;20330;-86
2023/03/07 00:24:19;;;;;;;;;;;3.50;51.80;;;1.77;55.60;99745.47;12249828;19;20261;-86
2023/03/07 00:28:20;;;;;;;;;;;3.80;52.20;;;1.75;55.49;99734.38;12056291;19;3905073;-86
2023/03/07 00:32:22;;;;;;;;;;;3.50;52.00;;;1.86;55.65;99735.75;12255326;19;19939;-86
2023/03/07 00:36:24;;;;;;;;;;;3.70;52.30;;;1.54;55.44;99668.25;12259238;19;19918;-86
2023/03/07 00:40:25;;;;;;;;;;;3.60;52.30;;;1.90;55.68;99727.03;12257428;19;19919;-86
2023/03/07 00:44:28;;;;;;;;;;;3.90;52.30;;;1.92;55.70;99714.97;12253431;19;19914;-86
2023/03/07 00:48:33;;;;;;;;;;;3.60;52.20;;;1.88;55.71;99695.34;12257333;19;19915;-86
2023/03/07 00:52:34;;;;;;;;;;;3.60;52.20;;;1.89;55.56;99682.44;12258211;19;19959;-86
2023/03/07 00:56:36;;;;;;;;;;;3.60;52.80;;;1.95;55.57;99684.78;12264914;19;19923;-86
2023/03/07 01:00:38;;;;;;;;;;;3.70;52.50;;;2.01;55.62;99673.41;12262009;19;19919;-86
2023/03/07 01:04:40;;;;;;;;;;;3.70;52.70;;;2.03;55.56;99670.78;12258496;19;20251;-86
2023/03/07 01:08:42;;;;;;;;;;;3.70;52.70;;;1.95;55.80;99647.91;12261708;19;19922;-86
2023/03/07 01:12:45;;;;;;;;;;;3.90;52.60;;;2.02;55.83;99649.34;12258499;19;19932;-86
2023/03/07 01:16:46;;;;;;;;;;;3.90;52.70;;;2.11;55.62;99654.16;12259671;19;19919;-86
2023/03/07 01:20:49;;;;;;;;;;;3.80;52.80;;;1.75;55.80;99579.97;12256847;19;19919;-86
2023/03/07 01:24:50;;;;;;;;;;;3.80;52.90;;;2.13;55.54;99631.78;12255771;19;20341;-86
2023/03/07 01:28:55;;;;;;;;;;;4.00;53.10;;;1.99;55.70;99598.81;12258749;19;19919;-86
2023/03/07 01:32:58;;;;;;;;;;;3.90;53.30;;;2.17;55.86;99609.31;12256969;19;19979;-86
2023/03/07 01:37:00;;;;;;;;;;;3.90;53.60;;;2.01;55.86;99567.84;12257338;19;19922;-86
2023/03/07 01:41:01;;;;;;;;;;;3.90;53.20;;;2.18;55.72;99575.75;12255018;19;19918;-86
2023/03/07 01:45:10;;;;;;;;;;;4.20;53.60;;;2.30;55.80;99591.66;12253042;19;19919;-86
2023/03/07 01:49:28;;;;;;;;;;;4.00;53.30;;;2.18;55.83;99565.44;12254759;19;19929;-86
2023/03/07 01:53:33;;;;;;;;;;;4.10;53.30;;;2.18;55.93;99538.88;12251660;19;20388;-86
2023/03/07 01:57:37;;;;;;;;;;;4.00;53.30;;;2.28;55.90;99542.75;12253394;19;19926;-86
2023/03/07 02:01:39;;;;;;;;;;;4.10;53.50;;;2.41;55.90;99558.56;12252101;19;19949;-86
2023/03/07 02:05:49;;;;;;;;;;;4.10;53.70;;;2.44;55.93;99537.81;12253211;19;19925;-86
2023/03/07 02:09:52;;;;;;;;;;;4.10;53.40;;;2.44;55.90;99528.34;12253214;19;19917;-86
2023/03/07 02:13:54;;;;;;;;;;;4.20;53.30;;;2.43;55.96;99511.22;12248606;19;19941;-86
2023/03/07 02:17:57;;;;;;;;;;;4.20;53.30;;;2.54;55.96;99513.34;12250206;19;20534;-86
2023/03/07 02:22:16;;;;;;;;;;;4.20;53.80;;;2.54;55.97;99497.91;12245125;19;19919;-86
2023/03/07 02:26:27;;;;;;;;;;;4.20;54.60;;;2.58;56.08;99494.28;12251423;19;20715;-86
2023/03/07 02:30:29;;;;;;;;;;;4.30;54.00;;;2.60;55.92;99477.00;12250838;19;19931;-86
2023/03/07 02:34:31;;;;;;;;;;;4.30;54.90;;;2.35;55.89;99428.28;12246654;19;19919;-86
2023/03/07 02:38:44;;;;;;;;;;;4.30;54.20;;;2.57;56.06;99451.38;12251751;19;19939;-86
2023/03/07 02:42:47;;;;;;;;;;;4.30;54.50;;;2.67;55.90;99456.97;12256699;19;19930;-86
2023/03/07 02:46:49;;;;;;;;;;;4.40;54.00;;;2.59;55.86;99423.81;12260607;19;19908;-86
2023/03/07 02:50:52;;;;;;;;;;;4.40;54.20;;;2.74;55.98;99429.19;12259919;19;19915;-86
2023/03/07 02:54:54;;;;;;;;;;;4.80;54.60;;;2.57;55.99;99386.97;12255838;19;19935;-86
2023/03/07 02:58:56;;;;;;;;;;;4.50;54.50;;;2.84;55.99;99423.56;12258275;19;19915;-86
2023/03/07 03:02:58;;;;;;;;;;;4.50;54.40;;;2.78;56.11;99398.06;12257222;19;20366;-86
2023/03/07 03:07:00;;;;;;;;;;;4.50;54.20;;;2.82;56.06;99385.88;12260119;19;20233;-86
2023/03/07 03:11:01;;;;;;;;;;;4.60;53.90;;;2.87;56.18;99376.19;12260463;19;19961;-86
2023/03/07 03:15:04;;;;;;;;;;;4.60;54.00;;;2.77;55.86;99349.16;12254215;19;19932;-86
2023/03/07 03:19:07;;;;;;;;;;;4.70;53.80;;;3.01;55.94;99363.50;12255730;19;19953;-86
2023/03/07 03:23:09;;;;;;;;;;;4.70;54.20;;;2.71;56.13;99309.03;12257336;19;19939;-86
2023/03/07 03:27:10;;;;;;;;;;;4.70;53.90;;;2.96;55.99;99328.53;12258675;19;19921;-86
2023/03/07 03:31:15;;;;;;;;;;;5.00;54.10;;;3.00;56.13;99330.91;12259370;19;19919;-87
2023/03/07 03:35:17;;;;;;;;;;;4.80;53.80;;;3.05;56.12;99323.78;12266831;19;20350;-86
2023/03/07 03:39:20;;;;;;;;;;;4.80;54.20;;;2.74;56.14;99266.81;12259475;19;19925;-86
2023/03/07 03:43:26;;;;;;;;;;;4.80;53.80;;;2.75;56.09;99253.00;12259247;19;19915;-86
2023/03/07 03:47:29;;;;;;;;;;;4.80;54.50;;;3.04;56.32;99283.41;12261944;19;19939;-86
2023/03/07 03:51:30;;;;;;;;;;;4.80;54.10;;;2.97;56.15;99261.44;12259131;19;20263;-86
2023/03/07 03:55:32;;;;;;;;;;;4.90;54.30;;;3.00;56.24;99247.56;12265001;19;19914;-87
2023/03/07 03:59:34;;;;;;;;;;;4.90;54.80;;;3.20;56.13;99269.78;12263717;19;19923;-86
2023/03/07 04:03:42;;;;;;;;;;;4.90;54.60;;;3.21;56.06;99261.13;12262679;19;19923;-87
2023/03/07 04:07:43;;;;;;;;;;;5.00;54.40;;;3.25;56.19;99252.34;12262999;19;19923;-86
2023/03/07 04:11:45;;;;;;;;;;;5.00;54.30;;;3.22;56.17;99234.44;12263158;19;19907;-87
2023/03/07 04:15:47;;;;;;;;;;;5.00;54.50;;;3.06;56.23;99198.25;12262470;19;19914;-87
2023/03/07 04:19:50;;;;;;;;;;;5.30;54.40;;;3.27;56.14;99224.75;12256862;19;20566;-87
2023/03/07 04:23:54;;;;;;;;;;;5.10;54.50;;;3.13;56.21;99180.72;12259845;19;19919;-87
2023/03/07 04:27:58;;;;;;;;;;;5.10;54.80;;;3.20;56.44;99192.41;12259372;19;19928;-87
2023/03/07 04:31:59;;;;;;;;;;;5.10;55.10;;;3.14;56.26;99178.06;12256789;19;19923;-87
2023/03/07 04:36:02;;;;;;;;;;;5.10;55.00;;;3.47;56.33;99216.81;12257776;19;19984;-86
2023/03/07 04:40:04;;;;;;;;;;;5.10;55.20;;;3.43;56.32;99193.81;12254162;19;19927;-86
2023/03/07 04:44:05;;;;;;;;;;;5.20;54.70;;;3.52;56.28;99193.38;12255147;19;19903;-87
2023/03/07 04:48:07;;;;;;;;;;;5.20;55.90;;;3.37;56.55;99158.84;12255620;19;19910;-86
2023/03/07 04:52:11;;;;;;;;;;;5.20;56.10;;;3.57;56.38;99178.50;12254609;19;19930;-86
2023/03/07 04:56:15;;;;;;;;;;;5.20;55.60;;;3.57;56.23;99180.25;12248168;19;19915;-86
2023/03/07 05:00:19;;;;;;;;;;;5.30;55.60;;;3.60;56.35;99168.00;12245982;19;19926;-86
2023/03/07 05:04:22;;;;;;;;;;;5.30;55.30;;;3.38;56.50;99128.75;12246645;19;19926;-87
2023/03/07 05:08:24;;;;;;;;;;;5.30;55.90;;;3.67;56.50;99174.53;12249443;19;19922;-86
2023/03/07 05:12:26;;;;;;;;;;;5.30;55.40;;;3.55;56.59;99146.75;12249447;19;19974;-85
2023/03/07 05:16:29;;;;;;;;;;;5.30;55.60;;;3.66;56.44;99157.34;12249285;19;19923;-85
2023/03/07 05:20:32;;;;;;;;;;;5.40;55.60;;;3.59;56.39;99130.19;12248481;19;19923;-85
2023/03/07 05:24:35;;;;;;;;;;;5.40;55.40;;;3.31;56.44;99081.78;12245354;19;19936;-85
2023/03/07 05:28:38;;;;;;;;;;;5.40;55.40;;;3.51;56.36;99115.13;12246412;19;19915;-85
2023/03/07 05:32:40;;;;;;;;;;;5.40;55.70;;;3.65;56.58;99131.63;12242450;19;20050;-85
2023/03/07 05:36:42;;;;;;;;;;;5.40;56.10;;;3.68;56.52;99134.06;12247668;19;19922;-84
2023/03/07 05:40:44;;;;;;;;;;;5.50;55.60;;;3.63;56.46;99116.22;12241898;19;19915;-84
2023/03/07 05:44:47;;;;;;;;;;;5.40;55.80;;;3.62;56.41;99111.13;12241710;19;19915;-84
2023/03/07 05:48:49;;;;;;;;;;;5.40;55.40;;;3.48;56.62;99086.06;12246594;19;19919;-84
2023/03/07 05:52:51;;;;;;;;;;;5.40;55.20;;;3.60;56.42;99093.16;12243775;19;19915;-84
2023/03/07 05:56:54;;;;;;;;;;;5.40;55.00;;;3.70;56.50;99111.56;12246069;19;19919;-84
2023/03/07 06:00:56;;;;;;;;;;;5.40;55.40;;;3.74;56.39;99106.16;12242677;19;20338;-84
2023/03/07 06:04:58;;;;;;;;;;;5.40;55.40;;;3.63;56.73;99092.16;12243640;19;19910;-84
2023/03/07 06:09:00;;;;;;;;;;;5.40;55.80;;;3.74;56.61;99105.34;12245328;19;19915;-84
2023/03/07 06:13:02;;;;;;;;;;;5.40;55.40;;;3.76;56.67;99108.66;12246961;19;20321;-84
2023/03/07 06:17:04;;;;;;;;;;;5.40;55.40;;;3.77;56.49;99107.75;12257383;19;20317;-84
2023/03/07 06:21:09;;;;;;;;;;;5.40;56.00;;;3.54;56.63;99065.09;12252529;19;19949;-84
2023/03/07 06:25:20;;;;;;;;;;;5.50;55.40;;;3.70;56.88;99090.91;12251185;19;19926;-84
2023/03/07 06:29:21;;;;;;;;;;;5.50;55.50;;;3.79;56.72;99102.50;12256104;19;19940;-84
2023/03/07 06:33:23;;;;;;;;;;;5.50;56.00;;;3.89;56.79;99108.81;12252626;19;19922;-84
2023/03/07 06:37:26;;;;;;;;;;;5.50;55.70;;;3.91;56.68;99112.16;12256972;19;19919;-84
2023/03/07 06:41:28;;;;;;;;;;;5.70;56.00;;;3.85;56.71;99097.84;12253105;19;19914;-84
2023/03/07 06:45:32;;;;;;;;;;;5.50;56.00;;;3.87;56.93;99101.19;12254215;19;19923;-84
2023/03/07 06:49:34;;;;;;;;;;;5.60;55.70;;;3.85;56.91;99094.44;12256962;19;19914;-84
2023/03/07 06:53:36;;;;;;;;;;;5.60;55.80;;;3.93;56.74;99103.41;12257913;19;19982;-84
2023/03/07 06:57:38;;;;;;;;;;;5.60;55.40;;;4.00;56.78;99109.09;12262361;19;19918;-83
2023/03/07 07:01:40;;;;;;;;;;;5.60;55.70;;;4.03;56.71;99116.69;12263557;19;19915;-84
2023/03/07 07:05:42;;;;;;;;;;;5.60;55.80;;;4.06;56.96;99116.50;12267154;19;19925;-84
2023/03/07 07:09:44;;;;;;;;;;;5.70;55.50;;;4.09;56.80;99110.34;12267019;19;19922;-84
2023/03/07 07:13:46;;;;;;;;;;;5.90;55.90;;;4.02;56.87;99099.50;12262913;19;19929;-84
2023/03/07 07:17:52;;;;;;;;;;;5.70;55.70;;;4.08;56.86;99101.78;12266114;19;19935;-84
2023/03/07 07:21:54;;;;;;;;;;;5.70;55.50;;;3.83;56.91;99057.53;12262865;19;19918;-84
2023/03/07 07:25:56;;;;;;;;;;;5.80;55.30;;;4.19;56.75;99106.34;12263560;19;19925;-84
2023/03/07 07:29:58;;;;;;;;;;;5.80;55.10;;;4.16;56.78;99097.00;12265353;19;19923;-84
2023/03/07 07:33:59;;;;;;;;;;;5.80;55.20;;;4.09;56.92;99069.03;12257067;19;19943;-84
2023/03/07 07:38:04;;;;;;;;;;;5.90;55.60;;;4.15;56.82;99073.84;12257851;19;20253;-84
2023/03/07 07:42:05;;;;;;;;;;;5.90;55.20;;;4.28;56.86;99085.16;12260714;19;19918;-84
2023/03/07 07:46:18;;;;;;;;;;;6.00;55.40;;;4.33;56.96;99084.91;12264023;19;20448;-84
2023/03/07 07:50:21;;;;;;;;;;;6.00;55.40;;;4.17;56.98;99057.34;12256530;19;20265;-84
2023/03/07 07:54:23;;;;;;;;;;;6.00;55.20;;;4.41;56.98;99082.72;12249346;19;19918;-83
2023/03/07 07:58:25;;;;;;;;;;;6.10;55.20;;;4.33;57.13;99061.66;12252519;19;20326;-84
2023/03/07 08:02:29;;;;;;;;;;;6.20;55.20;;;4.12;56.76;99009.44;12250340;19;20361;-84
2023/03/07 08:06:30;;;;;;;;;;;6.10;55.20;;;4.51;57.00;99070.09;12253672;19;19922;-84
2023/03/07 08:10:32;;;;;;;;;;;6.20;55.30;;;4.62;57.02;99085.84;12252512;19;19922;-86
2023/03/07 08:14:33;;;;;;;;;;;6.20;55.30;;;4.51;56.85;99059.75;12247281;19;19915;-84
2023/03/07 08:18:35;;;;;;;;;;;6.30;55.20;;;4.65;56.86;99070.16;12251908;19;19919;-84
2023/03/07 08:22:38;;;;;;;;;;;6.30;55.60;;;4.71;56.89;99077.56;12251112;19;20636;-85
2023/03/07 08:26:39;;;;;;;;;;;6.30;55.40;;;4.69;56.89;99069.03;12252165;19;19943;-84
2023/03/07 08:30:41;;;;;;;;;;;6.30;55.10;;;4.63;57.04;99051.31;12251548;19;19939;-85
2023/03/07 08:34:43;;;;;;;;;;;6.40;55.00;;;4.78;57.06;99072.84;12242562;19;19919;-86
2023/03/07 08:38:50;;;;;;;;;;;6.40;55.10;;;4.68;56.99;99051.88;12249203;19;19923;-86
2023/03/07 08:42:53;;;;;;;;;;;6.40;55.30;;;4.74;57.01;99046.34;12248128;19;19979;-86
2023/03/07 08:46:55;;;;;;;;;;;6.70;55.50;;;4.79;56.79;99046.91;12250639;19;20279;-86
2023/03/07 08:51:02;;;;;;;;;;;6.50;55.10;;;4.91;57.12;99066.03;12249570;19;20378;-85
2023/03/07 08:55:04;;;;;;;;;;;6.50;55.30;;;4.70;57.02;99019.03;12244090;19;19967;-85
2023/03/07 08:59:06;;;;;;;;;;;6.50;55.30;;;4.95;56.85;99049.44;12249233;19;19948;-87
2023/03/07 09:03:08;;;;;;;;;;;6.60;55.70;;;5.04;57.19;99066.16;12247077;19;19919;-87
2023/03/07 09:07:09;;;;;;;;;;;6.70;55.40;;;5.11;57.03;99070.06;12250025;19;19928;-87
2023/03/07 09:11:11;;;;;;;;;;;6.70;55.50;;;5.10;56.98;99052.84;12247992;19;19926;-87
2023/03/07 09:15:13;;;;;;;;;;;6.80;55.40;;;5.25;57.04;99064.06;12246021;19;19914;-87
2023/03/07 09:19:15;;;;;;;;;;;6.80;55.30;;;4.97;57.02;99006.22;12248784;19;19949;-87
2023/03/07 09:23:16;;;;;;;;;;;6.90;55.20;;;5.28;57.19;99041.41;12248072;19;19903;-85
2023/03/07 09:27:17;;;;;;;;;;;7.30;55.60;;;5.17;57.08;99011.94;12247283;19;19923;-85
2023/03/07 09:31:19;;;;;;;;;;;7.10;55.50;;;5.41;57.04;99038.91;12248007;19;20255;-86
2023/03/07 09:35:21;;;;;;;;;;;7.10;55.30;;;5.45;57.19;99037.78;12242793;19;19926;-87
2023/03/07 09:39:22;;;;;;;;;;;7.30;55.80;;;5.66;57.15;99058.94;12246746;19;19930;-86
2023/03/07 09:43:25;;;;;;;;;;;7.20;55.80;;;5.50;57.09;99016.78;12245835;19;19950;-86
2023/03/07 09:48:00;;;;;;;;;;;7.30;55.70;;;5.72;57.12;99047.34;12242806;19;19907;-87
2023/03/07 09:52:02;;;;;;;;;;;7.40;55.50;;;5.71;57.24;99033.59;12245008;19;19942;-87
2023/03/07 09:56:15;;;;;;;;;;;7.70;56.00;;;5.81;57.11;99033.03;12246578;19;19978;-87
2023/03/07 10:00:26;;;;;;;;;;;7.50;55.60;;;6.04;57.14;99049.72;12226784;19;19930;-87
2023/03/07 10:04:37;;;;;;;;;;;7.60;55.30;;;6.03;57.31;99033.34;12243397;19;19910;-86
2023/03/07 10:08:39;;;;;;;;;;;7.80;55.60;;;6.20;57.24;99046.06;12246955;19;19978;-87
2023/03/07 10:13:04;;;;;;;;;;;7.80;55.60;;;6.35;57.46;99048.59;12243734;19;20341;-87
2023/03/07 10:17:16;;;;;;;;;;;7.90;55.40;;;6.06;57.35;98989.09;12248335;19;19974;-87
2023/03/07 10:21:20;;;;;;;;;;;8.00;55.40;;;6.50;57.14;99049.34;12242573;19;19925;-87
2023/03/07 10:25:29;;;;;;;;;;;8.10;55.50;;;6.49;57.14;99037.31;12244354;19;19924;-87
2023/03/07 10:29:45;;;;;;;;;;;8.10;55.20;;;6.48;57.17;99028.72;12246258;19;19923;-86
2023/03/07 10:33:48;;;;;;;;;;;8.20;55.40;;;6.49;57.31;99016.59;12239407;19;19934;-87
2023/03/07 10:38:15;;;;;;;;;;;8.30;55.40;;;6.59;57.35;99031.44;12246648;19;19911;-88
2023/03/07 10:42:20;;;;;;;;;;;8.30;55.30;;;6.68;57.15;99037.78;12241365;19;19923;-86
2023/03/07 10:46:27;;;;;;;;;;;8.40;55.50;;;6.70;57.36;99045.44;12241834;19;19915;-86
2023/03/07 10:51:14;;;;;;;;;;;8.30;55.10;;;6.77;57.38;99042.34;12245599;19;19907;-85
2023/03/07 10:55:38;;;;;;;;;;;8.30;55.10;;;6.79;57.40;99037.06;12231953;19;20345;-87
2023/03/07 10:59:47;;;;;;;;;;;8.40;55.00;;;6.83;57.17;99038.50;12244660;19;19930;-86
2023/03/07 11:04:19;;;;;;;;;;;8.40;55.00;;;6.86;57.17;99038.31;12254860;19;19943;-87
2023/03/07 11:08:31;;;;;;;;;;;8.40;54.90;;;6.84;57.24;99017.66;12255459;19;19918;-87
2023/03/07 11:12:42;;;;;;;;;;;8.50;55.20;;;6.86;57.17;99012.38;12251398;19;19919;-86
2023/03/07 11:16:49;;;;;;;;;;;8.50;55.20;;;6.80;57.29;99002.38;12255246;19;19947;-86
2023/03/07 11:20:51;;;;;;;;;;;8.50;55.00;;;6.77;57.10;98984.44;12253084;19;20333;-86
2023/03/07 11:24:54;;;;;;;;;;;8.50;55.30;;;6.79;57.33;98986.00;12253700;19;20337;-86
2023/03/07 11:29:11;;;;;;;;;;;8.50;55.10;;;6.93;57.32;98997.22;12255343;19;19910;-86
2023/03/07 11:33:23;;;;;;;;;;;8.50;55.20;;;6.95;57.29;99001.34;12255087;19;19923;-86
2023/03/07 11:37:32;;;;;;;;;;;8.50;55.00;;;6.95;57.02;99003.97;12256093;19;19931;-86
2023/03/07 11:41:40;;;;;;;;;;;8.80;55.00;;;6.90;57.26;98987.88;12254014;19;19934;-87
2023/03/07 11:46:02;;;;;;;;;;;8.50;54.90;;;6.86;57.20;98992.44;12261410;19;20249;-85
2023/03/07 11:50:23;;;;;;;;;;;8.50;54.80;;;6.91;57.29;98994.69;12257989;19;19915;-87
2023/03/07 11:54:50;;;;;;;;;;;8.50;54.80;;;6.88;57.27;99005.28;12255242;19;19922;-85
2023/03/07 11:59:32;;;;;;;;;;;8.50;54.70;;;6.85;57.14;99005.50;12259023;19;19935;-85
2023/03/07 12:03:42;;;;;;;;;;;8.50;54.60;;;6.83;57.31;98991.81;12251857;19;19936;-87
2023/03/07 12:08:14;;;;;;;;;;;8.40;54.60;;;6.82;57.19;98996.16;12256431;19;19911;-86
2023/03/07 12:12:45;;;;;;;;;;;8.40;54.60;;;6.81;57.24;98989.31;12251977;19;19923;-86
2023/03/07 12:17:05;;;;;;;;;;;8.40;54.50;;;6.78;57.29;98975.75;12255264;19;19931;-85
2023/03/07 12:21:21;;;;;;;;;;;8.40;54.50;;;6.77;57.28;98971.47;12254078;19;19974;-85
2023/03/07 12:25:37;;;;;;;;;;;8.30;54.40;;;6.74;57.15;98961.31;12253055;19;19927;-86
2023/03/07 12:29:43;;;;;;;;;;;8.30;54.40;;;6.74;57.38;98961.31;12258063;19;19936;-86
2023/03/07 12:34:05;;;;;;;;;;;8.30;54.40;;;6.78;57.08;98980.94;12254391;19;19923;-85
2023/03/07 12:38:18;;;;;;;;;;;8.30;54.40;;;6.77;57.28;98964.50;12251833;19;19933;-87
2023/03/07 12:42:42;;;;;;;;;;;8.30;54.40;;;6.79;57.22;98977.38;12250116;19;19927;-85
2023/03/07 12:46:57;;;;;;;;;;;8.30;54.40;;;6.70;56.97;98955.50;12254894;19;20393;-85
2023/03/07 12:51:20;;;;;;;;;;;8.30;54.40;;;6.77;57.07;98966.28;12252669;19;20330;-85
2023/03/07 12:55:49;;;;;;;;;;;8.30;54.70;;;6.73;57.08;98962.25;12248371;19;19919;-85
2023/03/07 12:59:52;;;;;;;;;;;8.30;54.50;;;6.75;57.19;98962.94;12252110;19;19923;-85
2023/03/07 13:04:02;;;;;;;;;;;8.20;54.40;;;6.76;57.25;98970.66;12249848;19;19918;-86
2023/03/07 13:08:05;;;;;;;;;;;8.30;54.50;;;6.71;57.13;98969.31;12250645;19;19933;-86
2023/03/07 13:12:18;;;;;;;;;;;8.30;54.40;;;6.74;57.04;98979.47;12248787;19;20342;-85
2023/03/07 13:16:36;;;;;;;;;;;8.20;54.40;;;6.72;57.05;98979.56;12253509;19;19918;-86
2023/03/07 13:20:42;;;;;;;;;;;8.20;54.40;;;6.53;57.15;98961.81;12250066;19;19964;-86
2023/03/07 13:24:45;;;;;;;;;;;8.20;54.40;;;6.69;57.18;98984.13;12249480;19;19923;-86
2023/03/07 13:28:49;;;;;;;;;;;8.20;54.30;;;6.61;57.23;98982.03;12250295;19;19915;-86
2023/03/07 13:32:51;;;;;;;;;;;8.10;54.30;;;6.63;57.01;98993.97;12250077;19;19925;-85
2023/03/07 13:36:52;;;;;;;;;;;8.10;54.30;;;6.55;57.03;98991.06;12252221;19;19915;-85
2023/03/07 13:40:54;;;;;;;;;;;8.10;54.30;;;6.50;57.19;98995.72;12251961;19;19929;-85
2023/03/07 13:44:56;;;;;;;;;;;8.10;54.20;;;6.43;57.16;98991.91;12252364;19;20277;-85
2023/03/07 13:48:59;;;;;;;;;;;8.00;54.20;;;6.35;57.20;98983.78;12255076;19;19923;-85
2023/03/07 13:53:02;;;;;;;;;;;8.00;54.60;;;6.35;56.99;98992.41;12253133;19;19919;-85
2023/03/07 13:57:04;;;;;;;;;;;7.90;54.10;;;6.27;57.26;98986.06;12252200;19;20399;-86
2023/03/07 14:01:13;;;;;;;;;;;7.90;54.20;;;6.34;57.18;99006.28;12245555;19;20364;-86
2023/03/07 14:05:15;;;;;;;;;;;7.80;54.20;;;6.20;57.08;98985.63;12246612;19;19932;-88
2023/03/07 14:09:25;;;;;;;;;;;7.80;54.30;;;6.27;57.15;99005.03;12249648;19;19927;-87
2023/03/07 14:13:53;;;;;;;;;;;7.70;54.30;;;6.26;57.06;99007.72;12249210;19;20271;-87
2023/03/07 14:18:20;;;;;;;;;;;7.70;54.30;;;6.23;57.05;99019.09;12250410;19;20231;-87
2023/03/07 14:22:41;;;;;;;;;;;7.70;54.30;;;6.19;57.07;99015.88;12248499;19;19923;-87
2023/03/07 14:26:55;;;;;;;;;;;7.90;54.50;;;6.14;57.01;99010.16;12250770;19;20369;-88
2023/03/07 14:31:05;;;;;;;;;;;7.60;54.40;;;6.05;57.22;98996.97;12248072;19;19923;-86
2023/03/07 14:35:13;;;;;;;;;;;7.60;54.30;;;6.09;57.06;99006.22;12253267;19;19926;-86
2023/03/07 14:39:15;;;;;;;;;;;7.60;54.40;;;6.03;57.02;98986.72;12260638;19;20022;-86
2023/03/07 14:43:26;;;;;;;;;;;7.60;54.40;;;6.04;57.21;98987.53;12260174;19;19938;-87
2023/03/07 14:47:34;;;;;;;;;;;7.50;54.40;;;6.06;57.12;98991.69;12261096;19;19926;-87
2023/03/07 14:51:39;;;;;;;;;;;7.50;54.40;;;5.96;57.28;98977.66;12263437;19;19938;-86
2023/03/07 14:55:44;;;;;;;;;;;7.50;54.40;;;5.86;57.05;98964.47;12262051;19;19921;-86
2023/03/07 15:00:03;;;;;;;;;;;7.50;54.50;;;5.94;57.04;98982.09;12258791;19;19914;-87
2023/03/07 15:04:30;;;;;;;;;;;7.50;54.50;;;5.96;57.17;98990.63;12259145;19;19918;-86
2023/03/07 15:08:37;;;;;;;;;;;7.50;54.50;;;5.90;57.16;98984.03;12261989;19;19925;-87
2023/03/07 15:12:39;;;;;;;;;;;7.50;54.60;;;5.98;57.13;98988.78;12262338;19;19911;-87
2023/03/07 15:16:44;;;;;;;;;;;7.60;54.60;;;5.98;57.34;98996.53;12258798;19;20008;-87
2023/03/07 15:20:48;;;;;;;;;;;7.50;54.50;;;5.98;57.06;98997.38;12254767;19;19915;-86
2023/03/07 15:24:50;;;;;;;;;;;7.50;54.70;;;5.92;57.04;98974.41;12253766;19;19927;-86
2023/03/07 15:29:01;;;;;;;;;;;7.50;54.60;;;5.97;57.32;98992.31;12260007;19;20340;-86
2023/03/07 15:33:09;;;;;;;;;;;7.40;54.80;;;5.95;57.38;98996.75;12257108;19;19915;-86
2023/03/07 15:37:23;;;;;;;;;;;7.40;54.80;;;5.84;57.40;98978.44;12261150;19;19931;-87
2023/03/07 15:41:28;;;;;;;;;;;7.40;54.70;;;5.94;57.13;99003.69;12255582;19;19923;-86
2023/03/07 15:45:38;;;;;;;;;;;7.40;54.70;;;5.83;57.17;98989.72;12254262;19;19978;-89
2023/03/07 15:49:51;;;;;;;;;;;7.40;54.60;;;5.87;57.29;99011.91;12256262;19;19917;-87
2023/03/07 15:54:02;;;;;;;;;;;7.40;54.60;;;5.88;57.33;99014.38;12255391;19;19915;-86
2023/03/07 15:58:12;;;;;;;;;;;7.40;54.60;;;5.80;57.39;99008.88;12255046;19;20322;-87
2023/03/07 16:02:34;;;;;;;;;;;7.40;54.60;;;5.90;57.40;99038.44;12252665;19;19915;-86
2023/03/07 16:06:45;;;;;;;;;;;7.40;54.60;;;5.83;57.39;99033.75;12256930;19;19931;-87
2023/03/07 16:11:00;;;;;;;;;;;7.40;54.50;;;5.80;57.27;99034.75;12254751;19;20290;-87
2023/03/07 16:15:02;;;;;;;;;;;7.40;54.50;;;5.77;57.44;99032.38;12253273;19;19911;-87
2023/03/07 16:19:04;;;;;;;;;;;7.40;54.50;;;5.73;57.33;99029.16;12253653;19;19931;-87
2023/03/07 16:23:10;;;;;;;;;;;7.40;54.50;;;5.61;57.21;99010.94;12253289;19;20254;-87
2023/03/07 16:27:18;;;;;;;;;;;7.40;54.50;;;5.75;57.40;99032.47;12252043;19;20028;-86
2023/03/07 16:31:20;;;;;;;;;;;7.30;54.80;;;5.82;57.23;99039.84;12252887;19;19934;-87
2023/03/07 16:35:24;;;;;;;;;;;7.30;54.60;;;5.87;57.38;99055.94;12248616;19;19940;-86
2023/03/07 16:39:25;;;;;;;;;;;7.40;54.60;;;5.62;57.25;99010.03;12253178;19;19915;-86
2023/03/07 16:43:37;;;;;;;;;;;7.40;54.50;;;5.71;57.38;99028.41;12250737;19;19927;-86
2023/03/07 16:47:39;;;;;;;;;;;7.40;54.50;;;5.88;57.31;99070.56;12254044;19;20247;-86
2023/03/07 16:51:40;;;;;;;;;;;7.40;54.50;;;5.88;57.40;99070.56;12252234;19;19918;-87
2023/03/07 16:55:42;;;;;;;;;;;7.40;54.50;;;5.85;57.38;99066.38;12253168;19;19998;-86
2023/03/07 16:59:45;;;;;;;;;;;7.40;54.40;;;5.88;57.26;99083.50;12251527;19;19919;-88
2023/03/07 17:03:47;;;;;;;;;;;7.50;54.40;;;5.67;57.25;99047.66;12251795;19;19914;-86
2023/03/07 17:07:48;;;;;;;;;;;7.50;54.50;;;5.84;57.17;99082.03;12253479;19;20344;-88
2023/03/07 17:11:50;;;;;;;;;;;7.40;54.40;;;5.76;57.40;99067.81;12248109;19;19922;-89
2023/03/07 17:15:51;;;;;;;;;;;7.40;54.30;;;5.81;57.20;99084.81;12241103;19;19914;-88
2023/03/07 17:19:53;;;;;;;;;;;7.50;54.40;;;5.84;57.21;99097.59;12250631;19;19953;-87
2023/03/07 17:23:55;;;;;;;;;;;7.30;54.20;;;5.72;57.43;99084.44;12238605;19;19939;-87
2023/03/07 17:28:03;;;;;;;;;;;7.30;54.20;;;5.79;57.25;99102.22;12254250;19;20262;-87
2023/03/07 17:32:05;;;;;;;;;;;7.30;54.20;;;5.83;57.36;99101.09;12251603;19;19915;-86
2023/03/07 17:36:10;;;;;;;;;;;7.30;54.30;;;5.80;57.23;99114.22;12252521;19;19958;-88
2023/03/07 17:40:11;;;;;;;;;;;7.30;54.20;;;5.63;57.29;99079.84;12250780;19;19919;-88
2023/03/07 17:44:13;;;;;;;;;;;7.30;54.30;;;5.71;57.34;99102.69;12251868;19;19915;-88
2023/03/07 17:48:15;;;;;;;;;;;7.30;54.30;;;5.70;57.18;99116.56;12253952;19;19918;-89
2023/03/07 17:52:17;;;;;;;;;;;7.20;54.30;;;5.40;57.22;99068.31;12254293;19;19930;-88
2023/03/07 17:56:18;;;;;;;;;;;7.20;54.20;;;5.49;57.21;99087.63;12272286;19;19940;-88
2023/03/07 18:00:21;;;;;;;;;;;7.20;54.20;;;5.53;57.18;99100.28;12270456;19;19918;-88
2023/03/07 18:04:22;;;;;;;;;;;7.20;54.20;;;5.65;57.21;99122.00;12255454;19;19915;-88
2023/03/07 18:08:24;;;;;;;;;;;7.20;54.30;;;5.46;57.39;99105.94;12254386;19;19949;-88
2023/03/07 18:12:25;;;;;;;;;;;7.20;54.30;;;5.50;57.38;99108.22;12263258;19;19922;-88
2023/03/07 18:16:27;;;;;;;;;;;7.10;54.30;;;5.44;57.24;99102.59;12265242;19;19930;-90
2023/03/07 18:20:28;;;;;;;;;;;7.10;54.30;;;5.56;57.34;99125.16;12260025;19;19911;-88
2023/03/07 18:24:29;;;;;;;;;;;7.20;54.30;;;5.58;57.25;99131.06;12258100;19;19907;-88
2023/03/07 18:28:33;;;;;;;;;;;7.30;54.30;;;5.60;57.26;99144.75;12263196;19;19935;-90
2023/03/07 18:32:35;;;;;;;;;;;7.10;54.20;;;5.47;57.38;99123.13;12259475;19;20026;-88
2023/03/07 18:36:38;;;;;;;;;;;7.10;54.30;;;5.45;57.34;99117.19;12260595;19;20261;-88
2023/03/07 18:40:40;;;;;;;;;;;7.20;54.30;;;5.55;57.24;99141.63;12258507;19;19998;-88
2023/03/07 18:44:41;;;;;;;;;;;7.10;54.30;;;5.27;57.25;99104.44;12256769;19;19974;-88
2023/03/07 18:48:43;;;;;;;;;;;7.00;54.20;;;5.36;57.16;99117.75;12262813;19;19919;-89
2023/03/07 18:52:44;;;;;;;;;;;7.00;54.60;;;5.20;57.35;99104.91;12260676;19;20321;-88
2023/03/07 18:56:46;;;;;;;;;;;7.00;54.30;;;5.31;57.26;99134.38;12262654;19;19919;-88
2023/03/07 19:00:48;;;;;;;;;;;7.00;54.30;;;5.30;57.45;99132.72;12260067;19;20318;-88